createdAt,value
2018-12-23T00:01:23.547Z,13.10
2018-12-23T00:03:51.005Z,13.30
2018-12-23T00:06:18.497Z,12.63
2018-12-23T00:08:45.956Z,13.37
2018-12-23T00:11:13.506Z,13.87
2018-12-23T00:13:40.951Z,13.80
2018-12-23T00:16:08.419Z,13.53
2018-12-23T00:18:35.878Z,13.50
2018-12-23T00:21:03.367Z,13.10
2018-12-23T00:23:30.823Z,13.80
2018-12-23T00:25:58.291Z,13.97
2018-12-23T00:28:25.748Z,14.57
2018-12-23T00:30:53.209Z,15.80
2018-12-23T00:33:20.661Z,15.83
2018-12-23T00:35:48.167Z,15.77
2018-12-23T00:38:15.625Z,15.40
2018-12-23T00:40:43.076Z,15.80
2018-12-23T00:43:10.617Z,16.30
2018-12-23T00:45:38.054Z,17.27
2018-12-23T00:48:05.547Z,16.60
2018-12-23T00:50:33.027Z,16.67
2018-12-23T00:53:00.495Z,17.83
2018-12-23T00:55:27.950Z,17.00
2018-12-23T00:57:55.408Z,17.03
2018-12-23T01:00:22.876Z,17.33
2018-12-23T01:02:50.354Z,15.67
2018-12-23T01:05:17.822Z,16.80
2018-12-23T01:07:45.305Z,16.73
2018-12-23T01:10:12.783Z,16.07
2018-12-23T01:12:40.266Z,17.00
2018-12-23T01:15:07.747Z,15.67
2018-12-23T01:17:35.241Z,15.93
2018-12-23T01:20:02.719Z,16.33
2018-12-23T01:22:30.171Z,15.90
2018-12-23T01:24:57.615Z,16.23
2018-12-23T01:27:25.071Z,16.27
2018-12-23T01:29:52.522Z,15.20
2018-12-23T01:32:20.010Z,15.17
2018-12-23T01:34:47.532Z,15.50
2018-12-23T01:37:14.987Z,16.37
2018-12-23T01:39:42.461Z,16.03
2018-12-23T01:42:09.926Z,14.70
2018-12-23T01:44:37.411Z,15.43
2018-12-23T01:47:04.888Z,14.67
2018-12-23T01:49:32.371Z,14.67
2018-12-23T01:51:59.843Z,14.00
2018-12-23T01:54:27.336Z,12.47
2018-12-23T01:56:54.823Z,12.57
2018-12-23T01:59:22.290Z,13.63
2018-12-23T02:01:49.744Z,12.87
2018-12-23T02:04:17.227Z,13.83
2018-12-23T02:06:44.692Z,13.70
2018-12-23T02:09:12.288Z,13.63
2018-12-23T02:11:39.751Z,12.53
2018-12-23T02:14:07.217Z,12.70
2018-12-23T02:16:34.763Z,12.53
2018-12-23T02:19:02.218Z,12.70
2018-12-23T02:21:29.764Z,12.50
2018-12-23T02:23:57.223Z,13.00
2018-12-23T02:26:24.699Z,11.80
2018-12-23T02:28:52.161Z,12.40
2018-12-23T02:31:19.621Z,12.13
2018-12-23T02:33:47.099Z,12.53
2018-12-23T02:36:14.557Z,13.40
2018-12-23T02:38:42.042Z,12.47
2018-12-23T02:41:09.516Z,13.07
2018-12-23T02:43:36.975Z,12.73
2018-12-23T02:46:04.467Z,12.67
2018-12-23T02:48:31.916Z,12.67
2018-12-23T02:50:59.407Z,12.30
2018-12-23T02:53:26.877Z,12.83
2018-12-23T02:55:54.425Z,12.43
2018-12-23T02:58:21.903Z,12.03
2018-12-23T03:00:49.362Z,13.17
2018-12-23T03:03:16.839Z,12.47
2018-12-23T03:05:44.287Z,12.00
2018-12-23T03:08:11.749Z,11.90
2018-12-23T03:10:39.223Z,12.20
2018-12-23T03:13:07.184Z,12.80
2018-12-23T03:15:34.660Z,12.73
2018-12-23T03:18:02.124Z,12.27
2018-12-23T03:20:29.601Z,12.93
2018-12-23T03:22:57.054Z,13.17
2018-12-23T03:25:24.523Z,12.93
2018-12-23T03:27:52.001Z,11.10
2018-12-23T03:30:19.480Z,11.93
2018-12-23T03:32:46.940Z,11.97
2018-12-23T03:35:14.476Z,11.93
2018-12-23T03:37:41.932Z,12.37
2018-12-23T03:40:09.424Z,11.87
2018-12-23T03:42:36.864Z,12.43
2018-12-23T03:45:04.555Z,11.03
2018-12-23T03:47:32.049Z,11.13
2018-12-23T03:49:59.511Z,10.30
2018-12-23T03:52:27.065Z,9.73
2018-12-23T03:54:54.624Z,9.83
2018-12-23T03:57:22.103Z,9.67
2018-12-23T03:59:49.679Z,10.13
2018-12-23T04:02:17.135Z,11.23
2018-12-23T04:04:44.596Z,11.60
2018-12-23T04:07:12.066Z,11.33
2018-12-23T04:09:39.624Z,11.60
2018-12-23T04:12:07.135Z,12.07
2018-12-23T04:14:34.595Z,11.93
2018-12-23T04:17:02.056Z,12.23
2018-12-23T04:19:29.658Z,11.60
2018-12-23T04:21:57.207Z,11.30
2018-12-23T04:24:24.688Z,11.93
2018-12-23T04:26:52.147Z,11.60
2018-12-23T04:29:19.596Z,11.23
2018-12-23T04:31:47.053Z,11.30
2018-12-23T04:34:14.515Z,8.60
2018-12-23T04:36:41.974Z,11.50
2018-12-23T04:39:09.435Z,12.20
2018-12-23T04:41:36.987Z,12.07
2018-12-23T04:44:04.452Z,11.07
2018-12-23T04:46:32.000Z,11.70
2018-12-23T04:48:59.456Z,10.80
2018-12-23T04:51:26.911Z,11.70
2018-12-23T04:53:54.368Z,12.07
2018-12-23T04:56:21.835Z,11.23
2018-12-23T04:58:49.295Z,11.77
2018-12-23T05:01:16.773Z,10.70
2018-12-23T05:03:44.226Z,11.50
2018-12-23T05:06:11.679Z,10.03
2018-12-23T05:08:39.127Z,9.90
2018-12-23T05:11:06.581Z,10.30
2018-12-23T05:13:34.415Z,10.63
2018-12-23T05:16:02.087Z,10.40
2018-12-23T05:18:29.556Z,11.30
2018-12-23T05:20:57.014Z,9.80
2018-12-23T05:23:24.480Z,10.00
2018-12-23T05:25:51.978Z,9.60
2018-12-23T05:28:20.842Z,9.27
2018-12-23T05:30:48.558Z,9.50
2018-12-23T05:33:16.015Z,10.03
2018-12-23T05:35:43.486Z,9.63
2018-12-23T05:38:10.968Z,9.30
2018-12-23T05:40:38.406Z,9.33
2018-12-23T05:43:05.896Z,9.00
2018-12-23T05:45:33.363Z,9.23
2018-12-23T05:48:00.783Z,9.43
2018-12-23T05:50:28.243Z,9.53
2018-12-23T05:52:55.711Z,9.50
2018-12-23T05:55:23.887Z,10.10
2018-12-23T05:57:52.372Z,8.97
2018-12-23T06:00:19.867Z,8.53
2018-12-23T06:02:47.320Z,9.00
2018-12-23T06:05:14.806Z,9.73
2018-12-23T06:07:42.286Z,9.47
2018-12-23T06:10:09.761Z,8.50
2018-12-23T06:12:37.243Z,8.43
2018-12-23T06:15:04.719Z,9.00
2018-12-23T06:17:32.187Z,8.43
2018-12-23T06:19:59.662Z,9.47
2018-12-23T06:22:27.121Z,8.17
2018-12-23T06:24:54.579Z,7.97
2018-12-23T06:27:22.051Z,8.47
2018-12-23T06:29:49.507Z,7.93
2018-12-23T06:32:16.956Z,8.20
2018-12-23T06:34:44.422Z,7.70
2018-12-23T06:37:11.869Z,7.33
2018-12-23T06:39:39.334Z,7.80
2018-12-23T06:42:06.873Z,7.93
2018-12-23T06:44:34.303Z,7.43
2018-12-23T06:47:01.774Z,6.90
2018-12-23T06:49:29.286Z,6.83
2018-12-23T06:51:56.736Z,7.07
2018-12-23T06:54:24.223Z,7.33
2018-12-23T06:56:51.712Z,6.50
2018-12-23T06:59:19.169Z,6.87
2018-12-23T07:01:46.641Z,6.70
2018-12-23T07:04:14.124Z,6.03
2018-12-23T07:06:41.571Z,7.27
2018-12-23T07:09:09.027Z,6.27
2018-12-23T07:11:36.482Z,6.77
2018-12-23T07:14:03.968Z,6.10
2018-12-23T07:16:31.419Z,5.90
2018-12-23T07:18:58.867Z,6.73
2018-12-23T07:21:26.319Z,6.10
2018-12-23T07:23:53.775Z,6.47
2018-12-23T07:26:21.230Z,6.13
2018-12-23T07:28:48.695Z,6.13
2018-12-23T07:31:16.146Z,6.67
2018-12-23T07:33:43.599Z,6.53
2018-12-23T07:36:11.062Z,6.07
2018-12-23T07:38:38.571Z,6.03
2018-12-23T07:41:06.039Z,7.37
2018-12-23T07:43:33.531Z,7.30
2018-12-23T07:46:00.975Z,7.80
2018-12-23T07:48:28.453Z,7.40
2018-12-23T07:50:55.904Z,7.37
2018-12-23T07:53:23.376Z,6.97
2018-12-23T07:55:50.820Z,6.50
2018-12-23T07:58:18.607Z,6.33
2018-12-23T08:00:46.066Z,6.80
2018-12-23T08:03:13.551Z,7.43
2018-12-23T08:05:41.012Z,7.60
2018-12-23T08:08:08.494Z,7.63
2018-12-23T08:10:35.954Z,7.67
2018-12-23T08:13:03.419Z,8.03
2018-12-23T08:15:30.871Z,8.43
2018-12-23T08:17:58.333Z,8.17
2018-12-23T08:20:25.782Z,7.77
2018-12-23T08:22:53.247Z,7.70
2018-12-23T08:25:20.703Z,7.10
2018-12-23T08:27:48.154Z,8.47
2018-12-23T08:30:15.631Z,7.10
2018-12-23T08:32:43.071Z,4.43
2018-12-23T08:35:10.564Z,7.27
2018-12-23T08:37:44.520Z,7.40
2018-12-23T08:40:07.503Z,7.37
2018-12-23T08:42:34.975Z,7.00
2018-12-23T08:45:02.440Z,7.07
2018-12-23T08:47:29.899Z,8.40
2018-12-23T08:49:57.367Z,7.27
2018-12-23T08:52:24.808Z,8.00
2018-12-23T08:54:52.271Z,8.13
2018-12-23T08:57:19.731Z,8.17
2018-12-23T08:59:47.171Z,7.97
2018-12-23T09:02:14.631Z,8.10
2018-12-23T09:04:42.137Z,7.97
2018-12-23T09:07:09.603Z,8.60
2018-12-23T09:09:37.086Z,7.30
2018-12-23T09:12:04.559Z,8.20
2018-12-23T09:14:32.035Z,6.90
2018-12-23T09:16:59.495Z,8.00
2018-12-23T09:19:26.945Z,7.57
2018-12-23T09:21:54.412Z,7.60
2018-12-23T09:24:21.936Z,7.47
2018-12-23T09:26:49.480Z,5.80
2018-12-23T09:29:16.951Z,7.67
2018-12-23T09:31:44.426Z,8.13
2018-12-23T09:34:11.912Z,7.93
2018-12-23T09:36:39.376Z,7.40
2018-12-23T09:39:06.871Z,7.60
2018-12-23T09:41:34.323Z,8.03
2018-12-23T09:44:01.786Z,7.20
2018-12-23T09:46:29.243Z,6.97
2018-12-23T09:48:56.924Z,6.97
2018-12-23T09:51:24.468Z,8.00
2018-12-23T09:53:51.950Z,5.87
2018-12-23T09:56:19.407Z,6.73
2018-12-23T09:58:46.874Z,6.47
2018-12-23T10:01:14.328Z,6.27
2018-12-23T10:03:41.804Z,6.80
2018-12-23T10:06:09.251Z,6.97
2018-12-23T10:08:36.717Z,8.20
2018-12-23T10:11:04.196Z,7.57
2018-12-23T10:13:31.674Z,6.53
2018-12-23T10:15:59.245Z,7.30
2018-12-23T10:18:26.702Z,8.03
2018-12-23T10:20:54.266Z,8.27
2018-12-23T10:23:21.756Z,8.97
2018-12-23T10:25:49.207Z,7.80
2018-12-23T10:28:17.656Z,11.30
2018-12-23T10:30:45.142Z,9.10
2018-12-23T10:33:12.666Z,7.17
2018-12-23T10:35:40.146Z,7.67
2018-12-23T10:38:07.624Z,7.60
2018-12-23T10:40:35.088Z,7.17
2018-12-23T10:43:02.533Z,8.10
2018-12-23T10:45:30.067Z,3.57
2018-12-23T10:47:57.569Z,7.53
2018-12-23T10:50:25.134Z,5.90
2018-12-23T10:52:52.616Z,7.60
2018-12-23T10:55:20.081Z,7.70
2018-12-23T10:57:47.546Z,7.40
2018-12-23T11:00:15.001Z,9.07
2018-12-23T11:02:42.581Z,7.53
2018-12-23T11:05:10.068Z,7.03
2018-12-23T11:07:37.565Z,8.30
2018-12-23T11:10:05.692Z,7.87
2018-12-23T11:12:33.173Z,7.47
2018-12-23T11:15:00.659Z,6.63
2018-12-23T11:17:28.124Z,6.93
2018-12-23T11:19:55.608Z,6.90
2018-12-23T11:22:23.066Z,7.27
2018-12-23T11:24:50.628Z,6.37
2018-12-23T11:27:18.081Z,5.20
2018-12-23T11:29:45.637Z,6.10
2018-12-23T11:32:13.108Z,6.63
2018-12-23T11:34:40.547Z,5.43
2018-12-23T11:37:08.011Z,6.20
2018-12-23T11:39:35.467Z,6.00
2018-12-23T11:42:02.938Z,5.67
2018-12-23T11:44:30.403Z,6.30
2018-12-23T11:46:57.863Z,5.93
2018-12-23T11:49:25.360Z,5.97
2018-12-23T11:51:52.813Z,5.67
2018-12-23T11:54:20.284Z,5.77
2018-12-23T11:56:47.759Z,5.60
2018-12-23T11:59:15.202Z,6.33
2018-12-23T12:01:42.809Z,6.63
2018-12-23T12:04:10.309Z,5.33
2018-12-23T12:06:37.774Z,5.60
2018-12-23T12:09:07.071Z,5.37
2018-12-23T12:11:34.868Z,5.00
2018-12-23T12:14:02.454Z,5.17
2018-12-23T12:16:30.026Z,4.47
2018-12-23T12:18:57.475Z,4.93
2018-12-23T12:21:24.981Z,5.60
2018-12-23T12:23:52.423Z,5.33
2018-12-23T12:26:19.896Z,5.30
2018-12-23T12:28:47.348Z,4.30
2018-12-23T12:31:14.816Z,4.17
2018-12-23T12:33:42.280Z,4.10
2018-12-23T12:36:09.744Z,5.30
2018-12-23T12:38:37.199Z,5.20
2018-12-23T12:41:04.686Z,4.83
2018-12-23T12:43:32.231Z,5.70
2018-12-23T12:46:00.695Z,5.37
2018-12-23T12:48:28.440Z,5.50
2018-12-23T12:50:55.957Z,5.50
2018-12-23T12:53:23.431Z,3.70
2018-12-23T12:55:50.976Z,6.40
2018-12-23T12:58:18.422Z,5.53
2018-12-23T13:00:45.884Z,6.13
2018-12-23T13:03:13.356Z,5.97
2018-12-23T13:05:40.847Z,5.80
2018-12-23T13:08:08.340Z,5.30
2018-12-23T13:10:35.797Z,5.73
2018-12-23T13:13:03.267Z,5.33
2018-12-23T13:15:30.737Z,5.90
2018-12-23T13:17:58.191Z,5.67
2018-12-23T13:20:25.656Z,6.00
2018-12-23T13:22:53.104Z,7.00
2018-12-23T13:25:20.625Z,5.87
2018-12-23T13:27:48.179Z,6.57
2018-12-23T13:30:15.635Z,4.80
2018-12-23T13:32:43.120Z,3.37
2018-12-23T13:35:10.603Z,5.07
2018-12-23T13:37:38.077Z,4.63
2018-12-23T13:40:10.212Z,4.67
2018-12-23T13:42:46.079Z,5.30
2018-12-23T13:45:18.960Z,4.93
2018-12-23T13:47:58.373Z,5.40
2018-12-23T13:50:35.599Z,5.60
2018-12-23T13:53:10.558Z,6.23
2018-12-23T13:55:47.925Z,6.03
2018-12-23T14:02:17.290Z,5.77
2018-12-23T14:04:58.405Z,6.90
2018-12-23T14:07:38.758Z,6.27
2018-12-23T14:10:19.877Z,6.27
2018-12-23T14:13:00.993Z,6.30
2018-12-23T14:15:42.383Z,4.97
2018-12-23T14:18:10.913Z,5.30
2018-12-23T14:20:59.100Z,5.60
2018-12-23T14:23:46.975Z,5.13
2018-12-23T14:26:35.181Z,7.17
2018-12-23T14:29:23.033Z,5.00
2018-12-23T14:32:10.909Z,4.70
2018-12-23T14:34:58.789Z,4.60
2018-12-23T14:37:46.932Z,4.43
2018-12-23T14:40:34.923Z,4.50
2018-12-23T14:43:22.888Z,4.57
2018-12-23T14:46:11.037Z,4.00
2018-12-23T14:48:58.921Z,4.10
2018-12-23T14:51:46.798Z,4.67
2018-12-23T14:54:34.656Z,5.10
2018-12-23T14:57:22.582Z,4.63
2018-12-23T15:00:10.501Z,5.90
2018-12-23T15:02:58.356Z,5.30
2018-12-23T15:05:39.562Z,6.37
2018-12-23T15:08:08.379Z,4.97
2018-12-23T15:10:56.272Z,5.13
2018-12-23T15:13:44.124Z,5.20
2018-12-23T15:16:32.175Z,5.10
2018-12-23T15:19:20.049Z,5.77
2018-12-23T15:22:08.240Z,5.90
2018-12-23T15:24:56.365Z,4.73
2018-12-23T15:27:44.220Z,6.90
2018-12-23T15:30:32.115Z,6.67
2018-12-23T15:33:00.635Z,6.77
2018-12-23T15:35:29.153Z,6.63
2018-12-23T15:38:17.380Z,6.93
2018-12-23T15:41:05.240Z,7.30
2018-12-23T15:43:53.108Z,7.33
2018-12-23T15:46:40.989Z,7.43
2018-12-23T15:49:28.829Z,7.77
2018-12-23T15:52:16.706Z,8.37
2018-12-23T15:55:05.081Z,7.83
2018-12-23T15:57:45.502Z,7.73
2018-12-23T16:00:25.969Z,8.10
2018-12-23T16:03:07.086Z,8.23
2018-12-23T16:05:48.529Z,8.87
2018-12-23T16:08:17.060Z,7.97
2018-12-23T16:11:05.195Z,8.50
2018-12-23T16:13:53.112Z,8.17
2018-12-23T16:16:40.968Z,8.17
2018-12-23T16:19:28.837Z,9.77
2018-12-23T16:22:16.685Z,8.83
2018-12-23T16:25:05.057Z,8.77
2018-12-23T16:27:53.178Z,8.37
2018-12-23T16:30:41.045Z,8.87
2018-12-23T16:33:28.933Z,9.30
2018-12-23T16:36:16.780Z,8.80
2018-12-23T16:39:25.373Z,9.40
2018-12-23T16:42:13.262Z,9.13
2018-12-23T16:45:01.121Z,8.67
2018-12-23T16:47:48.972Z,9.40
2018-12-23T16:50:37.086Z,8.93
2018-12-23T16:53:24.948Z,8.80
2018-12-23T16:56:12.837Z,9.47
2018-12-23T16:58:53.498Z,9.23
2018-12-23T17:01:22.022Z,9.70
2018-12-23T17:04:09.889Z,8.80
2018-12-23T17:06:58.008Z,9.07
2018-12-23T17:09:45.889Z,9.20
2018-12-23T17:12:33.738Z,9.43
2018-12-23T17:15:21.606Z,8.83
2018-12-23T17:18:09.459Z,9.60
2018-12-23T17:20:57.597Z,9.47
2018-12-23T17:23:45.445Z,8.27
2018-12-23T17:26:33.322Z,8.23
2018-12-23T17:29:21.169Z,8.97
2018-12-23T17:32:09.046Z,17.07
2018-12-23T17:34:57.193Z,7.83
2018-12-23T17:37:45.317Z,8.37
2018-12-23T17:40:33.165Z,8.07
2018-12-23T17:43:21.040Z,10.03
2018-12-23T17:46:08.904Z,9.83
2018-12-23T17:48:56.768Z,10.97
2018-12-23T17:51:44.711Z,9.57
2018-12-23T17:54:32.553Z,8.10
2018-12-23T17:57:20.429Z,3.17
2018-12-23T17:59:48.941Z,3.27
2018-12-23T18:02:36.997Z,6.77
2018-12-23T18:05:24.838Z,3.80
2018-12-23T18:08:12.704Z,3.87
2018-12-23T18:11:00.557Z,2.60
2018-12-23T18:13:29.093Z,3.00
2018-12-23T18:16:16.981Z,2.93
2018-12-23T18:19:04.885Z,3.30
2018-12-23T18:21:52.728Z,3.73
2018-12-23T18:24:40.610Z,3.50
2018-12-23T18:27:28.453Z,2.97
2018-12-23T18:30:16.560Z,3.33
2018-12-23T18:32:56.877Z,3.73
2018-12-23T18:35:37.569Z,4.10
2018-12-23T18:38:18.444Z,5.53
2018-12-23T18:40:59.749Z,3.77
2018-12-23T18:43:40.776Z,3.50
2018-12-23T18:46:21.178Z,4.20
2018-12-23T18:49:01.483Z,3.83
2018-12-23T18:51:42.512Z,3.50
2018-12-23T18:54:23.644Z,3.97
2018-12-23T18:57:04.844Z,3.63
2018-12-23T18:59:46.136Z,3.30
2018-12-23T19:02:27.577Z,3.30
2018-12-23T19:05:08.613Z,3.47
2018-12-23T19:07:49.941Z,2.83
2018-12-23T19:10:30.886Z,3.20
2018-12-23T19:13:12.242Z,2.93
2018-12-23T19:15:52.946Z,3.30
2018-12-23T19:18:34.073Z,3.73
2018-12-23T19:21:15.224Z,3.10
2018-12-23T19:24:16.074Z,3.33
2018-12-23T19:27:23.240Z,2.80
2018-12-23T19:30:31.845Z,3.73
2018-12-23T19:33:39.008Z,9.30
2018-12-23T19:36:47.609Z,2.97
2018-12-23T19:39:54.784Z,3.87
2018-12-23T19:43:03.391Z,2.63
2018-12-23T19:46:12.214Z,3.27
2018-12-23T19:49:19.528Z,3.70
2018-12-23T19:52:26.701Z,3.30
2018-12-23T19:55:35.552Z,4.47
2018-12-23T19:58:42.726Z,3.87
2018-12-23T20:01:23.117Z,4.00
2018-12-23T20:04:03.529Z,3.40
2018-12-23T20:06:49.725Z,4.20
2018-12-23T20:09:58.323Z,4.73
2018-12-23T20:13:05.514Z,3.43
2018-12-23T20:16:12.696Z,4.20
2018-12-23T20:19:19.899Z,4.40
2018-12-23T20:22:27.086Z,4.90
2018-12-23T20:25:34.509Z,5.03
2018-12-23T20:28:43.135Z,5.07
2018-12-23T20:31:50.302Z,5.27
2018-12-23T20:34:58.933Z,5.70
2018-12-23T20:37:39.464Z,5.50
2018-12-23T20:40:20.656Z,5.60
2018-12-23T20:43:01.088Z,5.13
2018-12-23T20:45:42.433Z,6.17
2018-12-23T20:48:23.177Z,5.23
2018-12-23T20:51:04.417Z,6.70
2018-12-23T20:53:45.073Z,6.03
2018-12-23T20:56:31.444Z,6.40
2018-12-23T20:59:40.275Z,6.47
2018-12-23T21:02:47.674Z,7.47
2018-12-23T21:05:56.314Z,6.67
2018-12-23T21:09:04.932Z,7.37
2018-12-23T21:12:12.134Z,7.17
2018-12-23T21:15:20.705Z,7.73
2018-12-23T21:18:28.197Z,7.30
2018-12-23T21:21:35.385Z,8.60
2018-12-23T21:24:42.557Z,7.70
2018-12-23T21:27:49.785Z,7.50
2018-12-23T21:30:58.397Z,8.40
2018-12-23T21:34:05.588Z,8.93
2018-12-23T21:36:46.665Z,8.47
2018-12-23T21:39:27.628Z,7.40
2018-12-23T21:42:08.754Z,7.50
2018-12-23T21:44:49.366Z,7.37
2018-12-23T21:47:30.474Z,8.00
2018-12-23T21:50:11.452Z,9.07
2018-12-23T21:52:54.672Z,7.13
2018-12-23T21:56:01.874Z,8.63
2018-12-23T21:59:09.328Z,7.40
2018-12-23T22:02:16.519Z,7.10
2018-12-23T22:05:23.712Z,6.57
2018-12-23T22:08:30.948Z,5.77
2018-12-23T22:11:39.516Z,5.30
2018-12-23T22:14:27.393Z,1.80
2018-12-23T22:17:15.258Z,1.80
2018-12-23T22:20:03.472Z,1.70
2018-12-23T22:22:51.341Z,5.33
2018-12-23T22:25:39.538Z,5.20
2018-12-23T22:28:27.411Z,5.07
2018-12-23T22:31:15.274Z,3.07
2018-12-23T22:34:03.469Z,5.47
2018-12-23T22:36:44.447Z,1.80
2018-12-23T22:39:13.322Z,4.70
2018-12-23T22:42:01.396Z,4.37
2018-12-23T22:44:49.253Z,5.43
2018-12-23T22:47:37.130Z,1.40
2018-12-23T22:50:24.998Z,1.70
2018-12-23T22:53:12.848Z,5.37
2018-12-23T22:56:00.716Z,5.67
2018-12-23T22:58:48.589Z,6.60
2018-12-23T23:01:39.880Z,8.90
2018-12-23T23:04:26.070Z,1.60
2018-12-23T23:07:14.044Z,7.50
2018-12-23T23:10:02.230Z,1.80
2018-12-23T23:12:50.120Z,1.57
2018-12-23T23:15:38.322Z,7.80
2018-12-23T23:18:26.421Z,7.73
2018-12-23T23:21:28.456Z,6.87
2018-12-23T23:23:56.816Z,6.13
2018-12-23T23:26:37.357Z,3.70
2018-12-23T23:29:17.622Z,7.37
2018-12-23T23:31:58.117Z,4.53
2018-12-23T23:34:39.353Z,2.30
2018-12-23T23:37:07.888Z,2.40
2018-12-23T23:39:55.761Z,2.63
2018-12-23T23:42:43.641Z,1.40
2018-12-23T23:45:31.485Z,1.87
2018-12-23T23:48:19.355Z,1.43
2018-12-23T23:51:07.475Z,1.80
2018-12-23T23:53:55.340Z,1.50
2018-12-23T23:56:43.196Z,1.63
2018-12-23T23:59:31.072Z,1.70
